Time;durP1;ratioP1;P1;durP2;ratioP2;P2;SDS_P1;SDS_P2;PMS_P1;PMS_P2;Temp;Humidity;BMP_temperature;BMP_pressure;BME280_temperature;BME280_humidity;BME280_pressure;Samples;Min_cycle;Max_cycle;Signal;HPM_P1;HPM_P2
2023/06/02 00:01:07;;;;;;;11.38;4.38;;;11.20;99.90;;;;;;5121881;27;20111;-74
2023/06/02 00:03:36;;;;;;;14.27;5.35;;;11.20;99.90;;;;;;5156893;27;20047;-73
2023/06/02 00:06:05;;;;;;;8.07;4.30;;;11.20;99.90;;;;;;5156524;27;20050;-75
2023/06/02 00:08:32;;;;;;;10.63;4.13;;;11.20;99.90;;;;;;5156551;27;20042;-75
2023/06/02 00:10:59;;;;;;;11.52;3.85;;;11.20;99.90;;;;;;5156103;27;20042;-75
2023/06/02 00:13:26;;;;;;;9.55;3.95;;;11.20;99.90;;;;;;5156281;27;20043;-74
2023/06/02 00:15:52;;;;;;;12.15;3.97;;;11.20;99.90;;;;;;5156991;27;20433;-74
2023/06/02 00:18:20;;;;;;;10.05;4.63;;;11.20;99.90;;;;;;5137915;27;20496;-74
2023/06/02 00:20:46;;;;;;;13.32;3.67;;;11.20;99.90;;;;;;5156125;27;20114;-74
2023/06/02 00:23:12;;;;;;;10.73;3.97;;;11.20;99.90;;;;;;5155940;27;20490;-74
2023/06/02 00:25:39;;;;;;;12.63;4.30;;;11.20;99.90;;;;;;5156202;27;20083;-74
2023/06/02 00:28:06;;;;;;;10.82;3.97;;;11.20;99.90;;;;;;5120497;27;20055;-74
2023/06/02 00:30:33;;;;;;;15.48;4.72;;;11.20;99.90;;;;;;5156329;27;20151;-73
2023/06/02 00:32:59;;;;;;;13.10;5.38;;;11.20;99.90;;;;;;5155958;27;20122;-73
2023/06/02 00:35:25;;;;;;;6.00;4.03;;;11.20;99.90;;;;;;5155786;27;20122;-73
2023/06/02 00:37:51;;;;;;;11.98;4.10;;;11.20;99.90;;;;;;5137636;27;20053;-74
2023/06/02 00:40:17;;;;;;;10.57;4.63;;;11.20;99.90;;;;;;5155832;27;20043;-74
2023/06/02 00:42:43;;;;;;;10.73;4.00;;;11.20;99.90;;;;;;5155642;27;20122;-73
2023/06/02 00:45:09;;;;;;;14.18;4.10;;;11.20;99.90;;;;;;5155624;27;20054;-73
2023/06/02 00:47:35;;;;;;;8.25;3.95;;;11.20;99.90;;;;;;5137109;27;20118;-73
2023/06/02 00:50:01;;;;;;;7.90;4.15;;;11.10;99.90;;;;;;5155183;27;20133;-73
2023/06/02 00:52:28;;;;;;;15.60;4.45;;;11.10;99.90;;;;;;5155562;27;20056;-74
2023/06/02 00:54:56;;;;;;;12.80;3.80;;;11.00;99.90;;;;;;5137689;27;20368;-72
2023/06/02 00:57:28;;;;;;;14.05;4.05;;;11.00;99.90;;;;;;5155356;27;20095;-74
2023/06/02 00:59:55;;;;;;;8.80;4.47;;;11.00;99.90;;;;;;5137431;27;20059;-73
2023/06/02 01:02:21;;;;;;;13.85;4.28;;;11.00;99.90;;;;;;5155163;27;20047;-74
2023/06/02 01:04:50;;;;;;;11.18;4.40;;;10.90;99.90;;;;;;5155221;27;20038;-73
2023/06/02 01:07:23;;;;;;;14.23;4.90;;;10.90;99.90;;;;;;5155240;27;20043;-73
2023/06/02 01:09:54;;;;;;;11.30;4.35;;;10.90;99.90;;;;;;5155681;27;20112;-74
2023/06/02 01:12:21;;;;;;;8.50;3.90;;;10.90;99.90;;;;;;5136935;27;20072;-75
2023/06/02 01:14:47;;;;;;;11.52;4.22;;;10.90;99.90;;;;;;5154846;27;20126;-74
2023/06/02 01:17:13;;;;;;;11.55;4.07;;;10.90;99.90;;;;;;5155027;27;20051;-73
2023/06/02 01:19:40;;;;;;;8.25;3.45;;;10.80;99.90;;;;;;5155048;27;20041;-73
2023/06/02 01:22:08;;;;;;;11.93;3.65;;;10.90;99.90;;;;;;5154553;27;20042;-74
2023/06/02 01:24:40;;;;;;;7.45;3.72;;;10.90;99.90;;;;;;5136091;27;20121;-74
2023/06/02 01:27:08;;;;;;;6.15;3.78;;;10.90;99.90;;;;;;5154680;27;20043;-74
2023/06/02 01:29:35;;;;;;;11.77;4.15;;;10.90;99.90;;;;;;5154684;27;20492;-73
2023/06/02 01:32:18;;;;;;;9.35;3.50;;;10.90;99.90;;;;;;5154696;27;20050;-74
2023/06/02 01:34:47;;;;;;;8.82;3.40;;;11.00;99.90;;;;;;5136210;27;20038;-75
2023/06/02 01:37:13;;;;;;;12.05;3.63;;;11.00;99.90;;;;;;5154671;27;20057;-74
2023/06/02 01:39:40;;;;;;;9.05;3.90;;;11.00;99.90;;;;;;5136232;27;20053;-72
2023/06/02 01:42:06;;;;;;;20.00;4.70;;;11.00;99.90;;;;;;5154633;27;20155;-73
2023/06/02 01:44:34;;;;;;;6.97;3.42;;;11.00;99.90;;;;;;5154296;27;20043;-73
2023/06/02 01:47:00;;;;;;;8.00;3.63;;;11.00;99.90;;;;;;5154426;27;20479;-74
2023/06/02 01:49:26;;;;;;;9.60;3.53;;;11.00;99.90;;;;;;5154461;27;20051;-73
2023/06/02 01:51:53;;;;;;;13.15;3.78;;;11.00;99.90;;;;;;5154839;27;20038;-74
2023/06/02 01:54:19;;;;;;;13.48;4.15;;;11.00;99.90;;;;;;5154316;27;20089;-74
2023/06/02 01:56:45;;;;;;;10.45;4.32;;;11.10;99.90;;;;;;5154405;27;20118;-74
2023/06/02 01:59:10;;;;;;;7.45;4.53;;;11.10;99.90;;;;;;5136036;27;20462;-73
2023/06/02 02:01:40;;;;;;;12.57;4.60;;;10.70;99.90;;;;;;5154503;27;20432;-72
2023/06/02 02:04:06;;;;;;;15.15;6.15;;;11.00;99.90;;;;;;5154117;27;20131;-72
2023/06/02 02:06:32;;;;;;;15.52;3.92;;;11.00;99.90;;;;;;5154287;27;20064;-73
2023/06/02 02:08:59;;;;;;;14.73;4.00;;;11.00;99.90;;;;;;5153927;27;20047;-71
2023/06/02 02:11:28;;;;;;;9.88;4.38;;;11.10;99.90;;;;;;5154082;27;20080;-72
2023/06/02 02:13:54;;;;;;;11.50;4.25;;;11.10;99.90;;;;;;5153721;27;20042;-72
2023/06/02 02:16:21;;;;;;;9.05;3.75;;;11.00;99.90;;;;;;5153932;27;20046;-73
2023/06/02 02:18:47;;;;;;;12.35;4.20;;;11.10;99.90;;;;;;5136422;27;20379;-73
2023/06/02 02:21:13;;;;;;;16.08;4.00;;;11.10;99.90;;;;;;5154371;27;20043;-73
2023/06/02 02:23:39;;;;;;;10.25;4.05;;;11.00;99.90;;;;;;5154273;27;20046;-74
2023/06/02 02:26:06;;;;;;;14.63;4.68;;;11.00;99.90;;;;;;5153985;27;20043;-74
2023/06/02 02:28:32;;;;;;;10.43;4.03;;;11.00;99.90;;;;;;5135729;27;20609;-73
2023/06/02 02:30:57;;;;;;;9.27;4.32;;;11.00;99.90;;;;;;5154021;27;20055;-73
2023/06/02 02:33:23;;;;;;;11.40;4.20;;;11.00;99.90;;;;;;5154190;27;20451;-73
2023/06/02 02:35:53;;;;;;;11.73;4.60;;;11.00;99.90;;;;;;5157634;27;20127;-72
2023/06/02 02:38:19;;;;;;;12.02;4.57;;;11.00;99.90;;;;;;5139752;27;20043;-73
2023/06/02 02:40:45;;;;;;;12.32;3.58;;;11.00;99.90;;;;;;5139878;27;20050;-73
2023/06/02 02:43:11;;;;;;;16.10;4.43;;;11.00;99.90;;;;;;5139726;27;20233;-72
2023/06/02 02:45:37;;;;;;;11.75;3.72;;;11.00;99.90;;;;;;5139328;27;20086;-73
2023/06/02 02:48:03;;;;;;;12.75;4.10;;;11.20;99.90;;;;;;5158078;27;20475;-73
2023/06/02 02:50:29;;;;;;;14.57;5.05;;;11.00;99.90;;;;;;5157774;27;20038;-73
2023/06/02 02:52:55;;;;;;;13.70;4.45;;;11.00;99.90;;;;;;5158263;27;20066;-74
2023/06/02 02:55:21;;;;;;;11.30;4.00;;;11.00;99.90;;;;;;5157790;27;20038;-73
2023/06/02 02:57:47;;;;;;;13.88;4.50;;;11.00;99.90;;;;;;5157817;27;20057;-73
2023/06/02 03:00:13;;;;;;;13.85;5.05;;;11.10;99.90;;;;;;5139648;27;20046;-72
2023/06/02 03:02:39;;;;;;;10.15;4.45;;;11.10;99.90;;;;;;5157718;27;20050;-73
2023/06/02 03:05:06;;;;;;;9.23;4.05;;;11.10;99.90;;;;;;5157643;27;20038;-74
2023/06/02 03:07:34;;;;;;;16.50;4.57;;;11.10;99.90;;;;;;5158171;27;20079;-74
2023/06/02 03:10:00;;;;;;;10.85;4.32;;;11.10;99.90;;;;;;5139776;27;20118;-72
2023/06/02 03:12:26;;;;;;;13.27;4.60;;;11.10;99.90;;;;;;5159087;27;20074;-72
2023/06/02 03:14:51;;;;;;;16.17;4.90;;;11.10;99.90;;;;;;5140496;27;20375;-73
2023/06/02 03:17:17;;;;;;;12.80;4.35;;;11.10;99.90;;;;;;5157861;27;20053;-74
2023/06/02 03:19:43;;;;;;;14.55;4.75;;;11.10;99.90;;;;;;5157497;27;20042;-73
2023/06/02 03:22:09;;;;;;;10.52;3.92;;;11.20;99.90;;;;;;5157547;27;20087;-73
2023/06/02 03:24:34;;;;;;;14.38;4.65;;;11.10;99.90;;;;;;5157344;27;20039;-74
2023/06/02 03:27:00;;;;;;;14.15;4.57;;;11.20;99.90;;;;;;5157217;27;20038;-74
2023/06/02 03:29:26;;;;;;;14.88;4.30;;;11.20;99.90;;;;;;5157761;27;20093;-72
2023/06/02 03:31:55;;;;;;;9.75;4.10;;;11.20;99.90;;;;;;5157181;27;20058;-74
2023/06/02 03:34:22;;;;;;;11.75;3.97;;;11.20;99.90;;;;;;5138948;27;20054;-74
2023/06/02 03:36:51;;;;;;;8.05;3.92;;;11.20;99.90;;;;;;5121623;27;20046;-74
2023/06/02 03:39:16;;;;;;;10.52;4.68;;;11.30;99.90;;;;;;5138728;27;20066;-74
2023/06/02 03:41:42;;;;;;;11.98;4.03;;;11.30;99.90;;;;;;5156940;27;20043;-75
2023/06/02 03:44:08;;;;;;;16.45;4.07;;;11.30;99.90;;;;;;5157444;27;20130;-74
2023/06/02 03:46:34;;;;;;;11.25;3.70;;;11.30;99.90;;;;;;5156640;27;20046;-73
2023/06/02 03:49:00;;;;;;;9.95;4.10;;;11.40;99.90;;;;;;5157870;27;20103;-73
2023/06/02 03:51:26;;;;;;;14.27;5.07;;;11.40;99.90;;;;;;5157093;27;20035;-74
2023/06/02 03:53:51;;;;;;;8.43;3.70;;;11.40;99.90;;;;;;5137865;27;20142;-75
2023/06/02 03:56:19;;;;;;;11.05;4.70;;;11.40;99.90;;;;;;5156443;27;20039;-74
2023/06/02 03:58:45;;;;;;;12.23;4.70;;;11.40;99.90;;;;;;5137912;27;20454;-72
2023/06/02 04:01:12;;;;;;;11.20;5.22;;;11.40;99.90;;;;;;5156801;27;20050;-74
2023/06/02 04:03:41;;;;;;;11.45;4.10;;;11.40;99.90;;;;;;5156715;27;20082;-73
2023/06/02 04:06:08;;;;;;;15.45;4.28;;;11.50;99.90;;;;;;5156857;27;20065;-73
2023/06/02 04:08:33;;;;;;;10.95;4.32;;;11.50;99.90;;;;;;5156359;27;20046;-73
2023/06/02 04:10:59;;;;;;;16.90;4.60;;;11.50;99.90;;;;;;5156309;27;20042;-72
2023/06/02 04:13:25;;;;;;;15.10;5.38;;;11.40;99.90;;;;;;5156276;27;20045;-74
2023/06/02 04:15:51;;;;;;;7.35;3.70;;;11.50;99.90;;;;;;5156549;27;20466;-75
2023/06/02 04:18:17;;;;;;;13.43;4.72;;;11.50;99.90;;;;;;5138147;27;20046;-74
2023/06/02 04:20:43;;;;;;;14.50;5.25;;;11.50;99.90;;;;;;5155707;27;20515;-74
2023/06/02 04:23:09;;;;;;;14.40;4.97;;;11.50;99.90;;;;;;5138034;27;20092;-74
2023/06/02 04:25:35;;;;;;;10.43;4.07;;;11.60;99.90;;;;;;5155636;27;20506;-74
2023/06/02 04:28:01;;;;;;;16.02;5.60;;;11.60;99.90;;;;;;5156182;27;20051;-74
2023/06/02 04:30:27;;;;;;;18.63;5.18;;;11.70;99.90;;;;;;5155883;27;20042;-73
2023/06/02 04:32:53;;;;;;;17.00;4.80;;;11.70;99.90;;;;;;5155842;27;20453;-74
2023/06/02 04:35:19;;;;;;;13.20;5.10;;;11.70;99.90;;;;;;5155631;27;20042;-74
2023/06/02 04:37:46;;;;;;;13.43;4.53;;;11.70;99.90;;;;;;5155839;27;20050;-74
2023/06/02 04:40:13;;;;;;;14.65;5.40;;;11.70;99.90;;;;;;5137538;27;20103;-73
2023/06/02 04:42:39;;;;;;;14.38;4.75;;;11.70;99.90;;;;;;5155733;27;20076;-74
2023/06/02 04:45:15;;;;;;;15.02;5.47;;;11.70;99.90;;;;;;5136688;27;20484;-74
2023/06/02 04:47:41;;;;;;;10.68;5.38;;;11.80;99.90;;;;;;5156017;27;20398;-74
2023/06/02 04:50:10;;;;;;;17.35;4.85;;;11.80;99.90;;;;;;5155562;27;20042;-74
2023/06/02 04:52:40;;;;;;;12.70;4.57;;;11.80;99.90;;;;;;5155472;27;20047;-73
2023/06/02 04:55:11;;;;;;;11.60;4.43;;;11.80;99.90;;;;;;5155334;27;20074;-74
2023/06/02 04:57:37;;;;;;;12.45;4.80;;;11.90;99.90;;;;;;5154465;27;20050;-74
2023/06/02 05:00:08;;;;;;;17.45;5.40;;;11.90;99.90;;;;;;5155815;27;20047;-74
2023/06/02 05:02:35;;;;;;;18.33;5.57;;;11.90;99.90;;;;;;5155630;27;20087;-73
2023/06/02 05:05:02;;;;;;;12.85;5.43;;;11.90;99.90;;;;;;5136835;27;20042;-74
2023/06/02 05:07:28;;;;;;;13.95;4.55;;;12.00;99.90;;;;;;5155234;27;20061;-74
2023/06/02 05:09:54;;;;;;;10.77;4.60;;;12.00;99.90;;;;;;5155715;27;20123;-75
2023/06/02 05:12:20;;;;;;;24.30;7.32;;;12.00;99.90;;;;;;5155331;27;20469;-74
2023/06/02 05:14:46;;;;;;;14.55;4.93;;;12.10;99.90;;;;;;5136812;27;20398;-74
2023/06/02 05:17:12;;;;;;;14.40;5.82;;;12.10;99.90;;;;;;5137202;27;20118;-74
2023/06/02 05:19:42;;;;;;;10.63;4.88;;;12.10;99.90;;;;;;5155097;27;20142;-74
2023/06/02 05:22:08;;;;;;;14.95;5.30;;;12.20;99.90;;;;;;5154623;27;20051;-74
2023/06/02 05:24:33;;;;;;;11.75;5.15;;;12.20;99.90;;;;;;5154568;27;20106;-73
2023/06/02 05:26:59;;;;;;;14.57;5.60;;;12.20;99.90;;;;;;5136222;27;20086;-74
2023/06/02 05:29:25;;;;;;;16.33;5.75;;;12.20;99.90;;;;;;5136316;27;20089;-74
2023/06/02 05:31:50;;;;;;;18.65;6.25;;;12.30;99.90;;;;;;5154628;27;20042;-74
2023/06/02 05:34:17;;;;;;;14.95;6.10;;;12.40;99.90;;;;;;5136063;27;20126;-74
2023/06/02 05:36:43;;;;;;;14.65;5.82;;;12.40;99.90;;;;;;5154589;27;20075;-72
2023/06/02 05:39:10;;;;;;;14.50;5.82;;;12.50;99.90;;;;;;5154502;27;20057;-73
2023/06/02 05:41:36;;;;;;;15.85;6.25;;;12.50;99.90;;;;;;5154828;27;20507;-73
2023/06/02 05:44:01;;;;;;;16.75;5.22;;;12.50;99.90;;;;;;5101593;27;20077;-73
2023/06/02 05:46:27;;;;;;;17.13;5.63;;;12.50;99.90;;;;;;5135516;27;20413;-73
2023/06/02 05:48:53;;;;;;;14.52;5.80;;;12.60;99.90;;;;;;5154418;27;20054;-73
2023/06/02 05:51:18;;;;;;;13.43;5.68;;;12.60;99.90;;;;;;5154296;27;20046;-73
2023/06/02 05:53:44;;;;;;;15.57;6.18;;;12.70;99.90;;;;;;5154215;27;20050;-74
2023/06/02 05:56:10;;;;;;;14.90;5.82;;;12.70;99.90;;;;;;5135809;27;20046;-73
2023/06/02 05:58:39;;;;;;;21.88;6.70;;;12.80;99.90;;;;;;5136451;27;20043;-72
2023/06/02 06:01:05;;;;;;;23.13;5.70;;;12.90;99.90;;;;;;5154221;27;20111;-74
2023/06/02 06:03:31;;;;;;;15.63;5.78;;;12.90;99.90;;;;;;5135872;27;20038;-73
2023/06/02 06:05:56;;;;;;;14.73;6.05;;;12.90;99.90;;;;;;5154051;27;20038;-73
2023/06/02 06:08:22;;;;;;;13.55;5.15;;;13.00;99.90;;;;;;5154010;27;20042;-73
2023/06/02 06:10:48;;;;;;;16.38;5.97;;;13.10;99.90;;;;;;5154482;27;20057;-72
2023/06/02 06:13:13;;;;;;;15.77;6.88;;;13.20;99.90;;;;;;5153904;27;20451;-73
2023/06/02 06:15:39;;;;;;;15.48;5.65;;;13.30;99.90;;;;;;5154571;27;20057;-72
2023/06/02 06:18:05;;;;;;;24.23;6.93;;;13.40;99.90;;;;;;5153863;27;20457;-73
2023/06/02 06:20:31;;;;;;;15.15;6.18;;;13.50;99.90;;;;;;5135763;27;20042;-73
2023/06/02 06:22:56;;;;;;;16.75;6.38;;;13.60;99.90;;;;;;5136091;27;20039;-74
2023/06/02 06:25:22;;;;;;;13.90;6.03;;;13.70;99.90;;;;;;5154396;27;20451;-71
2023/06/02 06:27:48;;;;;;;15.35;6.72;;;13.90;99.90;;;;;;5156459;27;20070;-72
2023/06/02 06:30:14;;;;;;;13.82;7.07;;;13.90;99.90;;;;;;5156229;27;20463;-73
2023/06/02 06:32:40;;;;;;;20.70;6.65;;;14.00;99.90;;;;;;5137305;27;20056;-72
2023/06/02 06:35:06;;;;;;;21.52;7.20;;;14.20;99.90;;;;;;5154944;27;20126;-74
2023/06/02 06:37:32;;;;;;;22.42;8.00;;;14.20;99.90;;;;;;5136070;27;20112;-72
2023/06/02 06:39:57;;;;;;;18.83;6.32;;;14.20;99.90;;;;;;5154415;27;20068;-73
2023/06/02 06:42:23;;;;;;;15.35;5.55;;;14.40;99.90;;;;;;5154726;27;20502;-72
2023/06/02 06:44:50;;;;;;;15.40;6.57;;;14.60;99.90;;;;;;5154206;27;20043;-72
2023/06/02 06:47:16;;;;;;;12.18;6.03;;;14.70;99.90;;;;;;5154601;27;20050;-73
2023/06/02 06:49:42;;;;;;;12.73;5.82;;;15.10;99.90;;;;;;5153610;27;20425;-74
2023/06/02 06:52:08;;;;;;;21.98;6.38;;;16.20;99.90;;;;;;5135717;27;20042;-72
2023/06/02 06:54:33;;;;;;;18.58;6.72;;;16.80;99.90;;;;;;5153634;27;20050;-73
2023/06/02 06:56:59;;;;;;;12.13;5.82;;;17.10;99.90;;;;;;5153954;27;20046;-72
2023/06/02 06:59:25;;;;;;;10.75;6.03;;;17.20;99.90;;;;;;5118368;27;20050;-72
2023/06/02 07:01:50;;;;;;;17.27;6.35;;;17.10;99.90;;;;;;5135446;27;20039;-73
2023/06/02 07:04:17;;;;;;;16.50;5.45;;;16.90;99.90;;;;;;5118587;27;20092;-73
2023/06/02 07:06:44;;;;;;;16.45;6.30;;;16.90;99.90;;;;;;5154110;27;20091;-72
2023/06/02 07:09:11;;;;;;;14.98;5.55;;;16.90;99.90;;;;;;5153646;27;20051;-74
2023/06/02 07:11:36;;;;;;;11.25;5.15;;;17.40;99.90;;;;;;5135695;27;20043;-73
2023/06/02 07:14:03;;;;;;;10.35;5.38;;;18.10;99.90;;;;;;5153767;27;20469;-72
2023/06/02 07:16:29;;;;;;;13.07;4.97;;;18.00;99.90;;;;;;5135115;27;20057;-73
2023/06/02 07:18:55;;;;;;;12.57;5.43;;;18.40;99.90;;;;;;5153799;27;20407;-73
2023/06/02 07:21:21;;;;;;;8.98;4.10;;;19.00;99.90;;;;;;5155529;27;20118;-73
2023/06/02 07:23:46;;;;;;;9.98;4.53;;;20.00;99.90;;;;;;5139601;27;20050;-72
2023/06/02 07:26:12;;;;;;;15.95;4.75;;;20.60;99.90;;;;;;5139131;27;20129;-72
2023/06/02 07:28:38;;;;;;;12.77;4.45;;;20.90;99.90;;;;;;5157183;27;20038;-72
2023/06/02 07:31:04;;;;;;;10.35;4.32;;;20.80;99.90;;;;;;5157077;27;20046;-73
2023/06/02 07:33:30;;;;;;;11.65;3.97;;;20.90;99.90;;;;;;5139187;27;20053;-72
2023/06/02 07:35:55;;;;;;;19.50;4.68;;;21.60;99.90;;;;;;5156899;27;20060;-74
2023/06/02 07:38:21;;;;;;;8.05;3.63;;;21.70;99.00;;;;;;5157401;27;20049;-74
2023/06/02 07:40:47;;;;;;;17.15;4.90;;;22.30;99.90;;;;;;5156575;27;20114;-72
2023/06/02 07:43:12;;;;;;;14.50;4.32;;;22.20;96.70;;;;;;5156878;27;20061;-72
2023/06/02 07:45:38;;;;;;;11.75;3.83;;;22.50;95.60;;;;;;5156836;27;20051;-72
2023/06/02 07:48:04;;;;;;;10.40;4.00;;;22.40;97.50;;;;;;5156804;27;20050;-72
2023/06/02 07:50:30;;;;;;;9.68;3.67;;;22.40;97.20;;;;;;5156911;27;20058;-72
2023/06/02 07:52:56;;;;;;;10.10;4.05;;;22.80;98.20;;;;;;5156861;27;20535;-72
2023/06/02 07:55:22;;;;;;;11.60;3.72;;;22.90;97.10;;;;;;5157194;27;20046;-74
2023/06/02 07:57:47;;;;;;;11.75;4.63;;;22.10;97.40;;;;;;5138314;27;20042;-73
2023/06/02 08:00:15;;;;;;;8.68;3.22;;;21.30;95.90;;;;;;5138590;27;20104;-71
2023/06/02 08:02:46;;;;;;;11.65;3.78;;;21.60;98.30;;;;;;5156725;27;20091;-72
2023/06/02 08:05:12;;;;;;;12.50;3.67;;;21.70;96.00;;;;;;5157216;27;20039;-73
2023/06/02 08:07:39;;;;;;;11.43;4.72;;;21.50;97.60;;;;;;5156687;27;20113;-71
2023/06/02 08:10:05;;;;;;;9.40;3.47;;;21.40;98.00;;;;;;5156457;27;20050;-72
2023/06/02 08:12:31;;;;;;;9.18;3.40;;;21.60;97.00;;;;;;5157246;27;20066;-72
2023/06/02 08:14:57;;;;;;;6.10;3.03;;;21.70;97.80;;;;;;5156093;27;20451;-72
2023/06/02 08:17:29;;;;;;;13.18;3.55;;;21.50;97.30;;;;;;5156859;27;20053;-72
2023/06/02 08:19:58;;;;;;;6.40;2.60;;;21.10;97.90;;;;;;5156793;27;20090;-73
2023/06/02 08:22:25;;;;;;;7.50;3.17;;;21.20;96.80;;;;;;5156156;27;20118;-74
2023/06/02 08:24:55;;;;;;;6.00;2.67;;;21.40;95.40;;;;;;5156193;27;20041;-73
2023/06/02 08:27:21;;;;;;;8.05;2.83;;;21.20;95.70;;;;;;5137998;27;20038;-73
2023/06/02 08:29:49;;;;;;;6.80;2.53;;;21.20;96.20;;;;;;5155992;27;20043;-74
2023/06/02 08:32:18;;;;;;;7.18;2.55;;;21.80;96.10;;;;;;5121062;27;20085;-72
2023/06/02 08:34:47;;;;;;;8.55;2.88;;;21.70;94.80;;;;;;5156354;27;20094;-74
2023/06/02 08:37:16;;;;;;;4.32;2.60;;;22.10;95.40;;;;;;5156182;27;20073;-74
2023/06/02 08:39:46;;;;;;;7.28;2.60;;;22.00;95.10;;;;;;5156005;27;20148;-74
2023/06/02 08:42:12;;;;;;;6.68;2.13;;;22.00;94.40;;;;;;5156524;27;20125;-70
2023/06/02 08:44:40;;;;;;;7.40;2.38;;;22.90;94.60;;;;;;5155597;27;20050;-71
2023/06/02 08:47:11;;;;;;;9.57;2.25;;;22.70;93.60;;;;;;5138287;27;20043;-73
2023/06/02 08:49:48;;;;;;;10.45;2.58;;;22.50;93.80;;;;;;5155785;27;20047;-72
2023/06/02 08:52:21;;;;;;;4.55;2.55;;;22.60;93.90;;;;;;5137481;27;20050;-73
2023/06/02 08:54:47;;;;;;;6.82;2.25;;;23.20;93.70;;;;;;5155518;27;20072;-72
2023/06/02 08:57:16;;;;;;;10.00;2.80;;;23.50;93.20;;;;;;5155405;27;20038;-73
2023/06/02 08:59:46;;;;;;;5.32;2.22;;;23.40;92.80;;;;;;5155518;27;20086;-73
2023/06/02 09:02:12;;;;;;;8.15;2.30;;;23.20;92.60;;;;;;5136993;27;20038;-73
2023/06/02 09:04:38;;;;;;;3.15;2.03;;;22.00;92.70;;;;;;5155303;27;20038;-74
2023/06/02 09:07:12;;;;;;;6.90;2.30;;;21.20;92.60;;;;;;5155472;27;20436;-73
2023/06/02 09:09:59;;;;;;;6.15;2.50;;;21.90;93.30;;;;;;5155686;27;20092;-73
2023/06/02 09:12:24;;;;;;;5.00;2.10;;;22.80;91.70;;;;;;5155167;27;20467;-74
2023/06/02 09:15:08;;;;;;;7.30;1.83;;;23.00;92.90;;;;;;5155196;27;20042;-74
2023/06/02 09:17:33;;;;;;;4.63;2.00;;;22.70;91.30;;;;;;5155192;27;20079;-74
2023/06/02 09:20:10;;;;;;;3.70;1.42;;;22.10;92.80;;;;;;5155064;27;20082;-74
2023/06/02 09:22:53;;;;;;;4.88;1.80;;;22.40;93.00;;;;;;5155009;27;20122;-75
2023/06/02 09:25:24;;;;;;;4.95;2.25;;;22.50;92.40;;;;;;5155040;27;20471;-74
2023/06/02 09:27:51;;;;;;;3.20;1.75;;;22.50;91.80;;;;;;5136903;27;20061;-75
2023/06/02 09:30:17;;;;;;;2.05;1.52;;;22.90;92.00;;;;;;5155294;27;20076;-73
2023/06/02 09:33:06;;;;;;;3.10;1.20;;;22.50;91.10;;;;;;5155366;27;20122;-72
2023/06/02 09:35:32;;;;;;;7.63;1.63;;;22.60;91.10;;;;;;5154816;27;20053;-72
2023/06/02 09:37:58;;;;;;;4.10;1.20;;;22.80;91.50;;;;;;5155063;27;20450;-73
2023/06/02 09:40:27;;;;;;;3.58;1.17;;;23.20;91.50;;;;;;5155985;27;20047;-75
2023/06/02 09:42:53;;;;;;;2.05;1.55;;;22.10;91.20;;;;;;5155857;27;20042;-74
2023/06/02 09:45:19;;;;;;;4.05;1.70;;;21.70;92.50;;;;;;5136292;27;20061;-74
2023/06/02 09:47:47;;;;;;;5.82;2.05;;;21.60;92.40;;;;;;5136640;27;20047;-74
2023/06/02 09:50:32;;;;;;;4.57;1.67;;;21.40;92.00;;;;;;5154714;27;20061;-74
2023/06/02 09:53:05;;;;;;;2.45;1.73;;;21.40;91.70;;;;;;5155278;27;20145;-75
2023/06/02 09:55:33;;;;;;;3.30;2.17;;;20.50;92.90;;;;;;5154468;27;20038;-75
2023/06/02 09:57:59;;;;;;;3.63;1.67;;;20.00;93.70;;;;;;5154591;27;20086;-75
2023/06/02 10:00:25;;;;;;;4.22;2.50;;;20.10;93.90;;;;;;5136114;27;20050;-74
2023/06/02 10:02:51;;;;;;;5.28;1.48;;;19.80;94.00;;;;;;5154110;27;20091;-75
2023/06/02 10:05:22;;;;;;;2.30;1.30;;;19.90;94.00;;;;;;5136478;27;20086;-74
2023/06/02 10:08:15;;;;;;;3.00;1.35;;;19.90;93.40;;;;;;5136268;27;20135;-74
2023/06/02 10:10:56;;;;;;;2.40;1.55;;;20.20;92.90;;;;;;5136435;27;20042;-74
2023/06/02 10:14:02;;;;;;;3.50;1.67;;;20.20;93.80;;;;;;5154347;27;20089;-72
2023/06/02 10:17:05;;;;;;;5.78;2.45;;;20.80;92.80;;;;;;5135780;27;20046;-72
2023/06/02 10:19:43;;;;;;;3.35;1.60;;;21.00;92.20;;;;;;5104941;27;20055;-74
2023/06/02 10:22:45;;;;;;;2.75;1.30;;;21.40;92.00;;;;;;5154419;27;20049;-75
2023/06/02 10:25:20;;;;;;;2.65;1.50;;;21.70;91.90;;;;;;5154092;27;20043;-75
2023/06/02 10:27:48;;;;;;;2.30;1.38;;;20.90;92.20;;;;;;5154321;27;20363;-73
2023/06/02 10:30:24;;;;;;;5.47;1.48;;;21.10;92.30;;;;;;5154835;27;20051;-75
2023/06/02 10:32:51;;;;;;;8.35;2.53;;;21.00;91.40;;;;;;5154362;27;20047;-74
2023/06/02 10:35:17;;;;;;;2.38;0.90;;;21.50;91.70;;;;;;5153757;27;20041;-75
2023/06/02 10:37:44;;;;;;;6.15;1.48;;;21.70;90.80;;;;;;5135324;27;20053;-72
2023/06/02 10:40:10;;;;;;;5.30;1.77;;;22.10;90.70;;;;;;5153892;27;20043;-73
2023/06/02 10:42:38;;;;;;;2.45;1.00;;;21.30;90.60;;;;;;5136018;27;20103;-73
2023/06/02 10:45:20;;;;;;;4.00;1.90;;;21.30;90.60;;;;;;5135412;27;20090;-73
2023/06/02 10:47:47;;;;;;;3.63;1.77;;;21.30;89.10;;;;;;5153845;27;20054;-73
2023/06/02 10:50:21;;;;;;;4.97;1.13;;;21.50;89.90;;;;;;5153941;27;20042;-73
2023/06/02 10:53:13;;;;;;;4.07;1.42;;;21.90;89.80;;;;;;5154671;27;20130;-72
2023/06/02 10:55:40;;;;;;;2.50;1.53;;;21.90;86.90;;;;;;5148963;27;20121;-72
2023/06/02 10:58:08;;;;;;;2.70;1.45;;;21.60;88.50;;;;;;5157989;27;20479;-73
2023/06/02 11:00:39;;;;;;;2.25;1.40;;;21.50;86.30;;;;;;5158262;27;20507;-72
2023/06/02 11:03:28;;;;;;;1.67;0.80;;;21.10;86.00;;;;;;5158283;27;20103;-73
2023/06/02 11:06:19;;;;;;;2.10;1.08;;;21.10;83.40;;;;;;5157855;27;20054;-73
2023/06/02 11:08:45;;;;;;;2.75;1.10;;;21.20;79.70;;;;;;5157735;27;20058;-71
2023/06/02 11:11:11;;;;;;;2.13;1.05;;;21.30;83.60;;;;;;5139499;27;20077;-73
2023/06/02 11:14:03;;;;;;;3.65;1.50;;;21.40;82.20;;;;;;5157599;27;20443;-72
2023/06/02 11:16:29;;;;;;;4.30;1.55;;;21.30;82.10;;;;;;5153069;27;20369;-72
2023/06/02 11:18:55;;;;;;;5.20;1.65;;;21.30;83.30;;;;;;5139156;27;20094;-72
2023/06/02 11:21:22;;;;;;;2.28;1.27;;;21.20;84.00;;;;;;5157528;27;20430;-73
2023/06/02 11:23:48;;;;;;;2.92;1.38;;;21.20;85.10;;;;;;5157354;27;20058;-73
2023/06/02 11:26:19;;;;;;;3.45;1.70;;;21.20;84.80;;;;;;5157384;27;20046;-72
2023/06/02 11:28:45;;;;;;;3.15;1.80;;;21.10;86.40;;;;;;5157611;27;20154;-72
2023/06/02 11:31:15;;;;;;;4.30;1.60;;;21.00;86.30;;;;;;5157235;27;20461;-72
2023/06/02 11:33:48;;;;;;;5.15;1.60;;;21.10;86.40;;;;;;5157673;27;20089;-72
2023/06/02 11:36:25;;;;;;;3.92;1.80;;;21.20;87.40;;;;;;5138830;27;20200;-72
2023/06/02 11:38:50;;;;;;;3.85;1.73;;;21.20;87.30;;;;;;5158720;27;20070;-71
2023/06/02 11:41:23;;;;;;;2.95;1.77;;;21.20;86.80;;;;;;5157864;27;20421;-72
2023/06/02 11:43:50;;;;;;;4.82;2.45;;;21.10;87.60;;;;;;5156803;27;20042;-71
2023/06/02 11:46:18;;;;;;;4.63;2.10;;;20.70;88.00;;;;;;5157046;27;20127;-72
2023/06/02 11:48:44;;;;;;;6.43;2.40;;;20.80;89.30;;;;;;5157213;27;20047;-72
2023/06/02 11:51:12;;;;;;;3.22;1.75;;;20.90;88.60;;;;;;5138826;27;20054;-73
2023/06/02 11:53:44;;;;;;;4.32;1.90;;;21.40;88.60;;;;;;5157399;27;20062;-72
2023/06/02 11:56:10;;;;;;;4.90;2.22;;;21.60;88.60;;;;;;5138246;27;20039;-73
2023/06/02 11:58:43;;;;;;;3.25;1.85;;;21.20;88.90;;;;;;5156731;27;20475;-73
2023/06/02 12:01:14;;;;;;;4.95;2.13;;;21.10;89.50;;;;;;5156361;27;20042;-72
2023/06/02 12:03:57;;;;;;;4.10;2.10;;;21.20;90.20;;;;;;5156411;27;20043;-71
2023/06/02 12:06:23;;;;;;;4.13;2.65;;;21.20;88.10;;;;;;5121073;27;20488;-72
2023/06/02 12:08:49;;;;;;;3.25;1.92;;;21.10;88.60;;;;;;5156593;27;20125;-73
2023/06/02 12:11:18;;;;;;;3.90;2.53;;;21.40;89.60;;;;;;5138125;27;20114;-73
2023/06/02 12:14:01;;;;;;;7.45;2.58;;;21.50;90.60;;;;;;5137880;27;20089;-75
2023/06/02 12:16:27;;;;;;;2.80;2.30;;;21.20;91.50;;;;;;5156695;27;20095;-76
2023/06/02 12:18:55;;;;;;;2.63;1.95;;;21.00;90.90;;;;;;5156609;27;20042;-75
2023/06/02 12:21:28;;;;;;;4.95;2.35;;;21.10;91.00;;;;;;5156234;27;20051;-77
2023/06/02 12:23:55;;;;;;;4.68;2.72;;;21.30;91.70;;;;;;5138385;27;20097;-73
2023/06/02 12:26:21;;;;;;;5.32;2.17;;;21.40;91.10;;;;;;5137525;27;20045;-73
2023/06/02 12:28:48;;;;;;;4.43;2.50;;;21.10;91.30;;;;;;5156107;27;20042;-73
2023/06/02 12:31:17;;;;;;;4.18;2.08;;;21.00;91.80;;;;;;5156243;27;20046;-75
2023/06/02 12:33:44;;;;;;;5.88;2.10;;;20.80;90.50;;;;;;5137872;27;20054;-72
2023/06/02 12:36:10;;;;;;;3.55;2.28;;;20.70;90.80;;;;;;5155639;27;20043;-73
2023/06/02 12:38:38;;;;;;;3.80;2.65;;;20.80;90.80;;;;;;5155589;27;20163;-73
2023/06/02 12:41:10;;;;;;;5.70;2.75;;;21.00;92.00;;;;;;5156178;27;20047;-74
2023/06/02 12:43:37;;;;;;;5.18;2.92;;;20.90;92.30;;;;;;5155731;27;20057;-73
2023/06/02 12:46:03;;;;;;;6.15;2.72;;;20.20;93.30;;;;;;5136508;27;20427;-75